createdAt,value
2019-05-22T00:04:23.314Z,10.90
2019-05-22T00:09:44.904Z,8.87
2019-05-22T00:14:53.466Z,9.90
2019-05-22T00:19:59.730Z,8.27
2019-05-22T00:25:08.002Z,10.82
2019-05-22T00:30:16.592Z,11.13
2019-05-22T00:35:23.482Z,11.50
2019-05-22T00:40:31.615Z,7.93
2019-05-22T00:45:37.434Z,7.13
2019-05-22T00:50:57.194Z,6.60
2019-05-22T00:56:11.540Z,5.80
2019-05-22T01:01:28.908Z,7.27
2019-05-22T01:06:36.276Z,8.07
2019-05-22T01:11:42.575Z,10.47
2019-05-22T01:16:48.904Z,9.20
2019-05-22T01:21:55.357Z,8.03
2019-05-22T01:27:00.176Z,7.77
2019-05-22T01:32:16.439Z,10.43
2019-05-22T01:37:26.362Z,7.90
2019-05-22T01:42:34.998Z,8.33
2019-05-22T01:47:46.796Z,12.17
2019-05-22T01:52:52.948Z,11.47
2019-05-22T01:57:58.371Z,13.55
2019-05-22T02:03:03.502Z,9.90
2019-05-22T02:08:09.329Z,12.57
2019-05-22T02:13:19.542Z,11.30
2019-05-22T02:18:25.717Z,11.40
2019-05-22T02:23:30.976Z,9.87
2019-05-22T02:28:37.043Z,13.00
2019-05-22T02:34:00.454Z,12.37
2019-05-22T02:39:10.586Z,10.10
2019-05-22T02:44:15.646Z,9.77
2019-05-22T02:49:22.683Z,9.43
2019-05-22T02:54:31.692Z,11.30
2019-05-22T02:59:38.323Z,10.27
2019-05-22T03:05:10.954Z,11.17
2019-05-22T03:10:18.288Z,12.13
2019-05-22T03:15:26.074Z,13.87
2019-05-22T03:20:33.591Z,14.93
2019-05-22T03:25:40.513Z,13.27
2019-05-22T03:30:47.545Z,13.83
2019-05-22T03:36:01.532Z,14.43
2019-05-22T03:41:07.496Z,15.80
2019-05-22T03:46:34.933Z,12.53
2019-05-22T03:51:40.815Z,17.90
2019-05-22T03:56:46.984Z,18.27
2019-05-22T04:01:52.519Z,12.95
2019-05-22T04:06:58.039Z,16.20
2019-05-22T04:12:02.733Z,21.43
2019-05-22T04:17:10.301Z,22.33
2019-05-22T04:22:15.492Z,18.47
2019-05-22T04:27:20.666Z,20.60
2019-05-22T04:32:35.801Z,19.87
2019-05-22T04:37:41.906Z,19.77
2019-05-22T04:42:47.920Z,19.27
2019-05-22T04:47:57.589Z,17.23
2019-05-22T04:53:02.999Z,20.80
2019-05-22T04:58:10.985Z,17.17
2019-05-22T05:03:17.083Z,22.40
2019-05-22T05:08:22.989Z,22.97
2019-05-22T05:13:27.937Z,20.80
2019-05-22T05:18:33.372Z,23.73
2019-05-22T05:23:39.264Z,29.20
2019-05-22T05:28:45.408Z,35.60
2019-05-22T05:34:22.730Z,28.30
2019-05-22T05:40:09.528Z,26.67
2019-05-22T05:45:14.169Z,29.03
2019-05-22T05:50:20.512Z,25.53
2019-05-22T05:55:28.740Z,25.70
2019-05-22T06:00:35.948Z,21.40
2019-05-22T06:05:44.673Z,20.87
2019-05-22T06:11:43.458Z,20.40
2019-05-22T06:17:29.192Z,16.83
2019-05-22T06:22:34.268Z,17.23
2019-05-22T06:27:58.291Z,15.00
2019-05-22T06:33:37.784Z,15.65
2019-05-22T06:39:07.770Z,11.20
2019-05-22T06:44:44.309Z,16.10
2019-05-22T06:49:57.181Z,11.45
2019-05-22T06:55:01.927Z,11.40
2019-05-22T07:00:15.323Z,15.75
2019-05-22T07:05:20.596Z,13.93
2019-05-22T07:10:26.202Z,13.03
2019-05-22T07:15:38.196Z,13.48
2019-05-22T07:20:44.564Z,13.30
2019-05-22T07:25:49.636Z,14.10
2019-05-22T07:30:54.703Z,11.53
2019-05-22T07:36:16.734Z,10.93
2019-05-22T07:41:08.023Z,12.30
2019-05-22T07:46:13.167Z,10.28
2019-05-22T07:51:19.721Z,13.50
2019-05-22T07:56:24.725Z,15.77
2019-05-22T08:01:31.271Z,10.63
2019-05-22T08:06:36.137Z,10.43
2019-05-22T08:11:41.693Z,10.18
2019-05-22T08:16:46.590Z,10.10
2019-05-22T08:22:06.216Z,9.83
2019-05-22T08:26:58.990Z,7.53
2019-05-22T08:32:05.171Z,7.75
2019-05-22T08:37:13.755Z,7.95
2019-05-22T08:42:19.517Z,11.65
2019-05-22T08:47:24.554Z,7.08
2019-05-22T08:52:30.824Z,9.95
2019-05-22T08:57:37.634Z,11.70
2019-05-22T09:19:14.149Z,8.93
2019-05-22T09:24:20.065Z,10.05
2019-05-22T09:29:25.154Z,9.83
2019-05-22T09:34:30.579Z,8.33
2019-05-22T09:39:35.249Z,5.87
2019-05-22T09:44:41.028Z,7.17
2019-05-22T09:49:45.904Z,10.93
2019-05-22T09:54:50.734Z,10.05
2019-05-22T09:59:55.933Z,6.70
2019-05-22T10:05:01.480Z,7.60
2019-05-22T10:10:07.827Z,6.15
2019-05-22T10:15:13.146Z,6.28
2019-05-22T10:20:18.783Z,6.30
2019-05-22T10:25:23.466Z,4.80
2019-05-22T10:30:28.612Z,4.65
2019-05-22T10:35:34.858Z,5.75
2019-05-22T10:40:39.424Z,5.72
2019-05-22T10:45:43.878Z,5.92
2019-05-22T10:50:48.955Z,8.73
2019-05-22T10:55:56.298Z,2.95
2019-05-22T11:01:01.497Z,3.08
2019-05-22T11:06:07.740Z,8.10
2019-05-22T11:11:13.371Z,5.17
2019-05-22T11:16:19.961Z,6.20
2019-05-22T11:21:25.423Z,6.97
2019-05-22T11:26:30.338Z,8.23
2019-05-22T11:31:34.955Z,6.25
2019-05-22T11:36:42.615Z,7.10
2019-05-22T11:41:47.706Z,4.67
2019-05-22T11:46:52.938Z,6.97
2019-05-22T11:51:57.704Z,5.37
2019-05-22T11:57:02.629Z,10.98
2019-05-22T12:02:08.680Z,5.65
2019-05-22T12:07:13.786Z,5.75
2019-05-22T12:12:19.117Z,3.27
2019-05-22T12:17:37.582Z,3.42
2019-05-22T12:22:32.995Z,9.88
2019-05-22T12:27:37.700Z,4.22
2019-05-22T12:32:42.583Z,3.55
2019-05-22T12:37:47.431Z,7.25
2019-05-22T12:42:53.493Z,6.12
2019-05-22T12:47:59.187Z,4.42
2019-05-22T12:53:06.608Z,3.95
2019-05-22T12:58:12.554Z,7.53
2019-05-22T13:03:21.298Z,3.98
2019-05-22T13:08:26.722Z,5.00
2019-05-22T13:13:31.553Z,3.47
2019-05-22T13:18:37.406Z,4.70
2019-05-22T13:23:43.706Z,6.37
2019-05-22T13:28:50.480Z,2.90
2019-05-22T13:33:55.070Z,2.40
2019-05-22T13:39:00.246Z,3.47
2019-05-22T13:44:15.896Z,6.83
2019-05-22T13:49:14.206Z,1.90
2019-05-22T13:54:23.514Z,2.85
2019-05-22T13:59:42.627Z,2.15
2019-05-22T14:04:48.674Z,3.72
2019-05-22T14:09:55.915Z,7.35
2019-05-22T14:15:04.956Z,3.83
2019-05-22T14:20:20.494Z,1.42
2019-05-22T14:25:25.916Z,2.12
2019-05-22T14:30:36.966Z,2.50
2019-05-22T14:35:53.393Z,3.93
2019-05-22T14:41:22.397Z,2.80
2019-05-22T15:22:29.032Z,4.62
2019-05-22T15:27:35.762Z,4.53
2019-05-22T15:32:40.453Z,4.12
2019-05-22T15:37:46.308Z,2.27
2019-05-22T15:42:51.034Z,1.55
2019-05-22T15:48:01.753Z,2.35
2019-05-22T15:53:13.452Z,2.92
2019-05-22T15:58:24.038Z,2.37
2019-05-22T16:03:30.237Z,1.30
2019-05-22T16:08:41.677Z,2.33
2019-05-22T16:13:51.893Z,2.62
2019-05-22T16:19:00.574Z,2.30
2019-05-22T16:24:07.759Z,2.02
2019-05-22T16:29:15.317Z,1.40
2019-05-22T16:34:21.859Z,1.50
2019-05-22T16:39:27.238Z,2.30
2019-05-22T16:44:42.297Z,2.90
2019-05-22T16:49:51.461Z,4.20
2019-05-22T16:55:30.322Z,2.75
2019-05-22T17:00:39.675Z,3.02
2019-05-22T17:05:48.483Z,3.67
2019-05-22T17:10:53.144Z,4.30
2019-05-22T17:16:41.068Z,3.02
2019-05-22T17:52:37.739Z,5.40
2019-05-22T17:57:47.038Z,6.70
2019-05-22T18:02:55.380Z,3.53
2019-05-22T18:07:59.766Z,5.25
2019-05-22T18:13:05.268Z,5.40
2019-05-22T18:18:10.770Z,4.03
2019-05-22T18:23:16.920Z,4.77
2019-05-22T18:28:20.959Z,3.73
2019-05-22T18:33:25.574Z,5.57
2019-05-22T18:38:37.707Z,4.33
2019-05-22T18:43:42.942Z,7.08
2019-05-22T18:49:22.171Z,3.27
2019-05-22T18:54:26.273Z,3.27
2019-05-22T19:22:59.967Z,9.13
2019-05-22T19:28:04.797Z,7.87
2019-05-22T19:33:09.313Z,4.63
2019-05-22T19:38:16.239Z,4.10
2019-05-22T19:43:30.004Z,5.97
2019-05-22T19:48:34.191Z,6.50
2019-05-22T19:53:41.179Z,6.57
2019-05-22T19:58:46.822Z,5.03
2019-05-22T20:03:53.187Z,4.40
2019-05-22T20:09:06.233Z,5.13
2019-05-22T20:14:10.518Z,5.23
2019-05-22T20:19:15.335Z,5.60
2019-05-22T20:24:28.016Z,8.05
2019-05-22T20:29:32.267Z,6.00
2019-05-22T20:34:38.626Z,7.00
2019-05-22T20:39:55.165Z,8.60
2019-05-22T20:44:49.450Z,6.57
2019-05-22T20:49:59.841Z,7.20
2019-05-22T20:55:19.434Z,7.17
2019-05-22T21:00:29.443Z,12.20
2019-05-22T21:05:33.886Z,15.20
2019-05-22T21:10:40.901Z,9.43
2019-05-22T21:15:53.277Z,8.50
2019-05-22T21:20:58.583Z,7.63
2019-05-22T21:26:05.232Z,7.87
2019-05-22T21:31:15.176Z,10.17
2019-05-22T21:36:21.461Z,9.90
2019-05-22T21:41:25.927Z,9.60
2019-05-22T21:46:30.692Z,7.17
2019-05-22T21:51:38.903Z,8.87
2019-05-22T21:56:44.489Z,10.67
2019-05-22T22:02:13.563Z,16.47
2019-05-22T22:07:21.024Z,8.50
2019-05-22T22:12:25.370Z,12.37
2019-05-22T22:17:30.300Z,10.43
2019-05-22T22:22:35.608Z,13.90
2019-05-22T22:27:40.572Z,9.47
2019-05-22T22:32:46.310Z,9.07
2019-05-22T22:37:54.932Z,11.48
2019-05-22T22:43:01.579Z,10.73
2019-05-22T22:48:32.004Z,9.57
2019-05-22T22:53:34.245Z,8.70
2019-05-22T22:58:48.744Z,9.23
2019-05-22T23:03:59.590Z,14.10
2019-05-22T23:09:05.213Z,8.03
2019-05-22T23:14:10.257Z,8.87
2019-05-22T23:19:34.203Z,10.33
2019-05-22T23:24:40.771Z,11.03
2019-05-22T23:29:48.361Z,10.60
2019-05-22T23:34:52.655Z,15.03
2019-05-22T23:40:07.206Z,12.03
2019-05-22T23:45:22.718Z,11.47
2019-05-22T23:50:28.899Z,9.67
2019-05-22T23:55:34.208Z,9.23
